createdAt,value
2023-01-09T00:01:14.877Z,50.10
2023-01-09T00:05:17.686Z,50.13
2023-01-09T00:09:24.031Z,47.90
2023-01-09T00:13:26.157Z,49.92
2023-01-09T00:17:28.413Z,52.05
2023-01-09T00:21:30.270Z,47.17
2023-01-09T00:25:32.352Z,49.70
2023-01-09T00:29:34.380Z,50.53
2023-01-09T00:33:41.543Z,50.20
2023-01-09T00:37:44.403Z,49.83
2023-01-09T00:41:51.378Z,49.03
2023-01-09T00:45:53.566Z,46.22
2023-01-09T00:49:58.898Z,44.17
2023-01-09T00:54:02.849Z,47.20
2023-01-09T00:58:05.564Z,48.65
2023-01-09T01:02:08.084Z,48.80
2023-01-09T01:06:28.763Z,47.05
2023-01-09T01:10:30.708Z,46.08
2023-01-09T01:14:34.997Z,45.95
2023-01-09T01:18:36.971Z,44.03
2023-01-09T01:22:38.986Z,49.08
2023-01-09T01:26:40.630Z,45.38
2023-01-09T01:30:43.895Z,47.65
2023-01-09T01:34:47.682Z,48.67
2023-01-09T01:38:49.900Z,48.80
2023-01-09T01:42:53.784Z,48.42
2023-01-09T01:46:56.830Z,46.20
2023-01-09T01:51:03.068Z,44.83
2023-01-09T01:55:08.363Z,45.17
2023-01-09T01:59:32.327Z,46.80
2023-01-09T02:03:36.609Z,42.95
2023-01-09T02:07:38.328Z,43.55
2023-01-09T02:11:49.336Z,43.10
2023-01-09T02:16:11.320Z,43.97
2023-01-09T02:20:16.055Z,45.60
2023-01-09T02:24:52.627Z,43.63
2023-01-09T02:29:00.732Z,43.50
2023-01-09T02:33:14.534Z,41.47
2023-01-09T02:37:48.851Z,43.88
2023-01-09T02:42:14.083Z,42.97
2023-01-09T02:46:20.259Z,40.08
2023-01-09T02:50:35.610Z,40.83
2023-01-09T02:54:54.566Z,40.22
2023-01-09T02:59:18.978Z,40.88
2023-01-09T03:03:36.983Z,40.20
2023-01-09T03:08:03.931Z,42.95
2023-01-09T03:12:18.338Z,41.38
2023-01-09T03:16:25.727Z,41.85
2023-01-09T03:24:33.183Z,40.05
2023-01-09T03:28:35.112Z,38.95
2023-01-09T03:32:36.815Z,40.83
2023-01-09T03:36:38.905Z,37.35
2023-01-09T03:40:43.748Z,39.58
2023-01-09T03:44:45.837Z,36.30
2023-01-09T03:48:47.592Z,36.75
2023-01-09T03:52:49.506Z,37.50
2023-01-09T03:56:51.164Z,35.63
2023-01-09T04:00:59.675Z,40.67
2023-01-09T04:05:01.661Z,39.55
2023-01-09T04:09:03.691Z,38.75
2023-01-09T04:13:06.080Z,38.35
2023-01-09T04:17:08.070Z,38.85
2023-01-09T04:21:10.359Z,39.90
2023-01-09T04:25:12.527Z,39.80
2023-01-09T04:29:14.489Z,41.28
2023-01-09T04:33:16.413Z,41.40
2023-01-09T04:37:18.326Z,39.97
2023-01-09T04:41:39.004Z,37.90
2023-01-09T04:45:40.965Z,39.15
2023-01-09T04:49:42.892Z,39.53
2023-01-09T04:53:44.908Z,39.97
2023-01-09T04:57:46.905Z,40.58
2023-01-09T05:01:49.084Z,37.95
2023-01-09T05:05:51.132Z,38.42
2023-01-09T05:09:53.120Z,37.17
2023-01-09T05:13:55.283Z,40.70
2023-01-09T05:17:56.928Z,37.88
2023-01-09T05:21:58.868Z,37.13
2023-01-09T05:26:00.882Z,36.53
2023-01-09T05:30:02.953Z,36.50
2023-01-09T05:34:04.929Z,38.80
2023-01-09T05:38:06.903Z,37.22
2023-01-09T05:42:08.889Z,37.97
2023-01-09T05:46:10.867Z,37.10
2023-01-09T05:50:14.563Z,35.53
2023-01-09T05:54:16.617Z,37.85
2023-01-09T05:58:18.664Z,35.63
2023-01-09T06:02:20.833Z,35.67
2023-01-09T06:06:24.202Z,35.25
2023-01-09T06:10:26.228Z,37.20
2023-01-09T06:14:28.160Z,35.25
2023-01-09T06:18:30.079Z,36.55
2023-01-09T06:22:32.039Z,35.97
2023-01-09T06:26:34.009Z,35.22
2023-01-09T06:30:36.044Z,34.08
2023-01-09T06:34:37.984Z,33.35
2023-01-09T06:38:39.966Z,36.30
2023-01-09T06:42:46.298Z,36.45
2023-01-09T06:46:48.308Z,39.75
2023-01-09T06:50:50.828Z,35.72
2023-01-09T06:54:52.891Z,35.08
2023-01-09T06:58:55.706Z,33.55
2023-01-09T07:02:57.668Z,34.55
2023-01-09T07:06:59.971Z,34.78
2023-01-09T07:11:02.122Z,33.55
2023-01-09T07:15:04.790Z,34.78
2023-01-09T07:19:06.975Z,34.33
2023-01-09T07:23:12.986Z,33.90
2023-01-09T07:27:15.213Z,34.63
2023-01-09T07:31:17.314Z,35.25
2023-01-09T07:35:19.306Z,37.97
2023-01-09T07:39:21.347Z,32.50
2023-01-09T07:43:23.355Z,33.08
2023-01-09T07:47:25.308Z,32.55
2023-01-09T07:51:27.299Z,33.17
2023-01-09T07:55:29.317Z,33.38
2023-01-09T07:59:31.355Z,30.80
2023-01-09T08:03:33.774Z,32.25
2023-01-09T08:07:36.102Z,33.47
2023-01-09T08:11:38.157Z,30.42
2023-01-09T08:15:39.994Z,31.27
2023-01-09T08:19:43.896Z,30.75
2023-01-09T08:23:46.148Z,30.17
2023-01-09T08:27:48.281Z,28.75
2023-01-09T08:31:50.322Z,28.05
2023-01-09T08:35:52.350Z,30.90
2023-01-09T08:39:53.960Z,30.55
2023-01-09T08:44:14.401Z,29.38
2023-01-09T08:48:16.979Z,28.48
2023-01-09T08:52:18.931Z,29.33
2023-01-09T08:56:20.919Z,28.30
2023-01-09T09:00:24.257Z,28.90
2023-01-09T09:04:26.238Z,28.30
2023-01-09T09:08:28.245Z,27.85
2023-01-09T09:12:30.238Z,29.15
2023-01-09T09:16:32.408Z,27.90
2023-01-09T09:20:37.652Z,27.20
2023-01-09T09:24:39.684Z,29.88
2023-01-09T09:28:41.424Z,26.80
2023-01-09T09:32:43.589Z,28.85
2023-01-09T09:36:45.634Z,28.73
2023-01-09T09:41:06.373Z,28.77
2023-01-09T09:45:52.672Z,29.67
2023-01-09T09:50:26.356Z,29.83
2023-01-09T09:54:34.987Z,29.23
2023-01-09T09:58:39.771Z,26.80
2023-01-09T10:02:50.507Z,26.33
2023-01-09T10:07:24.648Z,27.58
2023-01-09T10:11:35.195Z,25.40
2023-01-09T10:15:46.265Z,25.65
2023-01-09T10:20:11.686Z,25.67
2023-01-09T10:24:29.585Z,27.90
2023-01-09T10:29:01.307Z,26.30
2023-01-09T10:33:35.560Z,25.08
2023-01-09T10:37:45.214Z,25.50
2023-01-09T10:41:47.185Z,27.35
2023-01-09T10:45:54.407Z,29.15
2023-01-09T10:49:57.343Z,30.40
2023-01-09T10:53:59.343Z,32.55
2023-01-09T11:34:17.756Z,33.65
2023-01-09T11:38:19.805Z,34.03
2023-01-09T11:42:44.594Z,32.97
2023-01-09T11:46:46.808Z,36.83
2023-01-09T11:50:56.748Z,36.85
2023-01-09T11:55:04.499Z,35.60
2023-01-09T11:59:19.379Z,41.03
2023-01-09T12:03:43.979Z,42.30
2023-01-09T12:07:57.803Z,40.13
2023-01-09T12:12:11.396Z,40.85
2023-01-09T12:16:33.545Z,41.70
2023-01-09T12:21:02.908Z,48.35
2023-01-09T12:29:30.919Z,47.33
2023-01-09T12:34:02.755Z,48.33
2023-01-09T12:38:40.152Z,44.53
2023-01-09T12:43:03.032Z,48.67
2023-01-09T12:47:29.660Z,50.03
2023-01-09T12:51:41.414Z,52.08
2023-01-09T12:55:50.610Z,49.60
2023-01-09T12:59:56.154Z,50.65
2023-01-09T13:04:12.880Z,53.45
2023-01-09T13:08:21.659Z,50.97
2023-01-09T13:12:25.709Z,53.80
2023-01-09T13:16:33.065Z,53.25
2023-01-09T13:20:43.908Z,51.80
2023-01-09T13:25:03.920Z,54.35
2023-01-09T13:29:24.874Z,49.25
2023-01-09T13:33:33.882Z,52.20
2023-01-09T13:37:36.968Z,52.65
2023-01-09T13:42:06.950Z,49.83
2023-01-09T13:46:09.052Z,51.63
2023-01-09T13:50:10.994Z,47.88
2023-01-09T13:54:12.753Z,50.72
2023-01-09T13:58:19.336Z,53.88
2023-01-09T14:02:33.727Z,48.45
2023-01-09T14:06:36.212Z,53.25
2023-01-09T14:10:47.596Z,51.83
2023-01-09T14:14:53.710Z,56.72
2023-01-09T14:19:07.041Z,49.20
2023-01-09T14:23:35.609Z,51.67
2023-01-09T14:27:59.181Z,50.47
2023-01-09T14:32:21.259Z,50.80
2023-01-09T14:36:27.189Z,51.70
2023-01-09T14:40:30.460Z,52.22
2023-01-09T14:44:49.084Z,47.95
2023-01-09T14:49:00.597Z,48.30
2023-01-09T14:53:06.671Z,49.33
2023-01-09T14:57:25.710Z,48.10
2023-01-09T15:01:32.520Z,48.55
2023-01-09T15:05:35.356Z,47.85
2023-01-09T15:09:46.260Z,52.08
2023-01-09T15:13:50.897Z,49.10
2023-01-09T15:17:56.774Z,51.22
2023-01-09T15:22:06.500Z,45.20
2023-01-09T15:26:23.519Z,46.15
2023-01-09T15:30:34.557Z,47.72
2023-01-09T15:34:36.950Z,47.95
2023-01-09T15:38:40.235Z,46.03
2023-01-09T15:42:58.081Z,52.25
2023-01-09T15:47:01.538Z,48.87
2023-01-09T15:51:32.314Z,49.90
2023-01-09T15:55:38.497Z,49.97
2023-01-09T15:59:40.224Z,47.45
2023-01-09T16:03:42.672Z,48.72
2023-01-09T16:07:46.800Z,51.33
2023-01-09T16:11:53.120Z,48.72
2023-01-09T16:15:57.382Z,49.00
2023-01-09T16:20:13.629Z,47.65
2023-01-09T16:24:15.519Z,48.63
2023-01-09T16:28:23.052Z,52.67
2023-01-09T16:32:31.045Z,49.55
2023-01-09T16:36:36.508Z,47.47
2023-01-09T16:40:38.565Z,49.22
2023-01-09T16:44:40.535Z,50.60
2023-01-09T16:48:42.697Z,47.95
2023-01-09T16:52:47.194Z,48.58
2023-01-09T16:56:52.846Z,48.60
2023-01-09T17:00:54.859Z,51.00
2023-01-09T17:04:56.911Z,46.78
2023-01-09T17:08:58.928Z,49.67
2023-01-09T17:13:00.996Z,51.45
2023-01-09T17:17:03.108Z,47.40
2023-01-09T17:21:05.418Z,48.25
2023-01-09T17:25:32.412Z,53.78
2023-01-09T17:29:35.211Z,51.97
2023-01-09T17:33:39.842Z,52.92
2023-01-09T17:37:42.541Z,54.47
2023-01-09T17:41:44.843Z,55.20
2023-01-09T17:45:47.987Z,55.10
2023-01-09T17:49:50.127Z,52.28
2023-01-09T17:53:52.159Z,56.97
2023-01-09T17:57:54.325Z,53.67
2023-01-09T18:01:57.220Z,54.00
2023-01-09T18:05:59.667Z,62.42
2023-01-09T18:10:01.399Z,64.10
2023-01-09T18:14:03.548Z,69.53
2023-01-09T18:18:05.943Z,75.20
2023-01-09T18:22:07.974Z,75.65
2023-01-09T18:26:11.604Z,78.32
2023-01-09T18:30:13.428Z,70.60
2023-01-09T18:34:15.413Z,68.07
2023-01-09T18:38:17.559Z,64.18
2023-01-09T18:42:19.576Z,66.25
2023-01-09T18:46:24.665Z,63.67
2023-01-09T18:50:26.461Z,62.72
2023-01-09T18:54:28.560Z,70.40
2023-01-09T18:58:31.028Z,67.32
2023-01-09T19:02:32.750Z,69.70
2023-01-09T19:06:36.712Z,71.07
2023-01-09T19:10:38.327Z,66.18
2023-01-09T19:14:40.306Z,63.70
2023-01-09T19:18:42.948Z,60.58
2023-01-09T19:22:44.924Z,62.83
2023-01-09T19:26:47.866Z,62.30
2023-01-09T19:30:59.281Z,63.92
2023-01-09T19:35:01.255Z,64.82
2023-01-09T19:39:04.002Z,66.80
2023-01-09T19:43:05.973Z,72.18
2023-01-09T19:47:08.158Z,65.32
2023-01-09T19:51:11.417Z,65.45
2023-01-09T19:55:14.222Z,62.58
2023-01-09T19:59:16.261Z,62.35
2023-01-09T20:03:18.511Z,64.30
2023-01-09T20:07:21.447Z,61.22
2023-01-09T20:11:25.454Z,60.15
2023-01-09T20:15:27.147Z,62.80
2023-01-09T20:19:30.120Z,62.63
2023-01-09T20:23:34.670Z,60.50
2023-01-09T20:27:36.896Z,60.97
2023-01-09T20:31:39.041Z,56.80
2023-01-09T20:35:41.314Z,52.38
2023-01-09T20:39:43.272Z,53.00
2023-01-09T20:43:45.324Z,50.97
2023-01-09T20:47:47.008Z,51.85
2023-01-09T20:51:52.111Z,47.58
2023-01-09T20:56:03.259Z,48.20
2023-01-09T21:00:07.259Z,44.80
2023-01-09T21:04:09.261Z,45.53
2023-01-09T21:08:10.959Z,44.78
2023-01-09T21:12:27.421Z,45.42
2023-01-09T21:16:29.513Z,43.05
2023-01-09T21:20:31.529Z,45.03
2023-01-09T21:24:33.517Z,43.15
2023-01-09T21:28:45.078Z,43.20
2023-01-09T21:32:46.812Z,48.45
2023-01-09T21:36:49.171Z,42.00
2023-01-09T21:40:52.677Z,42.30
2023-01-09T21:45:13.014Z,46.13
2023-01-09T21:49:15.105Z,48.22
2023-01-09T21:53:16.811Z,47.42
2023-01-09T21:57:18.803Z,47.50
2023-01-09T22:01:20.816Z,53.67
2023-01-09T22:05:24.575Z,47.65
2023-01-09T22:09:26.629Z,49.95
2023-01-09T22:13:29.000Z,51.67
2023-01-09T22:17:31.009Z,50.42
2023-01-09T22:21:33.020Z,50.95
2023-01-09T22:25:39.010Z,51.67
2023-01-09T22:29:40.941Z,49.83
2023-01-09T22:33:42.938Z,49.90
2023-01-09T22:37:45.461Z,54.30
2023-01-09T22:41:52.443Z,52.42
2023-01-09T22:45:59.854Z,53.92
2023-01-09T22:50:01.635Z,61.00
2023-01-09T22:54:04.139Z,56.47
2023-01-09T22:58:06.153Z,46.38
2023-01-09T23:02:08.341Z,50.55
2023-01-09T23:06:14.287Z,47.55
2023-01-09T23:10:16.243Z,49.60
2023-01-09T23:14:18.223Z,46.08
2023-01-09T23:18:20.232Z,52.60
2023-01-09T23:22:22.835Z,45.40
2023-01-09T23:26:24.833Z,42.47
2023-01-09T23:30:26.471Z,44.53
2023-01-09T23:34:28.577Z,44.05
2023-01-09T23:38:30.597Z,42.95
2023-01-09T23:42:51.010Z,40.78
2023-01-09T23:46:53.541Z,44.70
2023-01-09T23:50:55.529Z,45.67
2023-01-09T23:54:57.477Z,45.22
2023-01-09T23:59:01.401Z,40.75
